Wetter

Nordholz:

METAR:

2018/06/24 20:20 ETMN 242020Z 33009KT 9999 BKN015 OVC020 14/11 Q1020 WHT

TAF:

2018/06/22 11:45 TAF TAF AMD ETMN 221334Z 2211/2220 33018G28KT 9999 NSW SCT025 SCT050 TEMPO 2211/2220 34020G32KT 8000 -SHRA FEW020 BKN025TCU CANCEL 1345

Wind EDXN:

24.06. 22:30z 310/10G14kt
24.06. 22:40z 320/10G14kt
24.06. 22:50z 330/08G13kt 280V340
24.06. 23:00z 330/08G12kt
24.06. 23:10z 330/06G12kt
24.06. 23:20z 310/07G10kt
24.06. 23:30z 320/07G10kt 290V350
24.06. 23:40z 330/07G10kt
24.06. 23:50z 320/07G12kt
25.06. 00:00z 310/07kt

Bremen:

METAR:

2018/06/24 20:20 EDDW 242020Z 30010KT 9999 BKN020 14/11 Q1021 NOSIG

TAF:

2018/06/24 18:57 TAF COR TAF COR EDDW 241749Z 2418/2518 30009KT 9999 BKN025 TEMPO 2418/2505 BKN013 PROB30 TEMPO 2502/2505 BKN007 TEMPO 2505/2512 4000 -DZRA BKN007

Hamburg:

METAR:

2018/06/24 20:20 EDDH 242020Z 29007KT CAVOK 14/10 Q1019 NOSIG

TAF:

2018/06/24 18:27 TAF EDDH 241700Z 2418/2524 29010KT 9999 BKN025 BECMG 2419/2422 29005KT TEMPO 2502/2506 BKN007 BECMG 2506/2508 30010KT TEMPO 2508/2512 4000 -DZRA BKN013 BECMG 2518/2520 30005KT

Hannover:

METAR:

2018/06/24 20:20 EDDV 242020Z 30005KT 9999 -DZRA BKN015 13/12 Q1020 NOSIG

TAF:

2018/06/24 18:27 TAF EDDV 241700Z 2418/2518 29008KT 9999 BKN025 TEMPO 2418/2422 4500 DZRA BKN007 TEMPO 2422/2507 BKN007 TEMPO 2507/2513 4000 -DZRA BKN007

Wikipedia Artikel: METARTAF

Daten von Aviation Weather Center der NOAA, es kann keine Garantie für Aktualität und Richtigkeit der Daten übernommen werden.

Die Nutzung dieser Daten zur Flugplanung ist nicht zulässig!

Inoffizielle ATIS 🙂